createdAt,value
2022-12-28T00:01:44.486Z,99.90
2022-12-28T00:04:15.608Z,99.90
2022-12-28T00:06:43.139Z,99.90
2022-12-28T00:09:13.195Z,99.90
2022-12-28T00:11:40.724Z,99.90
2022-12-28T00:14:08.045Z,99.90
2022-12-28T00:16:38.327Z,99.90
2022-12-28T00:19:10.446Z,99.90
2022-12-28T00:21:37.807Z,99.90
2022-12-28T00:24:05.890Z,99.90
2022-12-28T00:26:35.192Z,99.90
2022-12-28T00:29:05.739Z,99.90
2022-12-28T00:31:36.204Z,99.90
2022-12-28T00:34:04.024Z,99.90
2022-12-28T00:37:11.861Z,99.90
2022-12-28T00:39:20.406Z,99.90
2022-12-28T00:41:47.617Z,99.90
2022-12-28T00:44:14.840Z,99.90
2022-12-28T00:46:42.285Z,99.90
2022-12-28T00:49:09.569Z,99.90
2022-12-28T00:51:36.748Z,99.90
2022-12-28T00:54:04.023Z,99.90
2022-12-28T00:56:31.132Z,99.90
2022-12-28T00:58:59.592Z,99.90
2022-12-28T01:01:28.247Z,99.90
2022-12-28T01:03:57.138Z,99.90
2022-12-28T01:06:24.374Z,99.90
2022-12-28T01:08:51.956Z,99.90
2022-12-28T01:11:22.436Z,99.90
2022-12-28T01:13:51.273Z,99.90
2022-12-28T01:16:22.203Z,99.90
2022-12-28T01:18:56.755Z,99.90
2022-12-28T01:21:26.524Z,99.90
2022-12-28T01:23:56.071Z,99.90
2022-12-28T01:26:23.720Z,99.90
2022-12-28T01:28:51.103Z,99.90
2022-12-28T01:31:20.076Z,99.90
2022-12-28T01:33:48.327Z,99.90
2022-12-28T01:36:18.317Z,99.90
2022-12-28T01:38:46.827Z,99.90
2022-12-28T01:41:16.779Z,99.90
2022-12-28T01:43:47.008Z,99.90
2022-12-28T01:46:20.443Z,99.90
2022-12-28T01:49:02.243Z,99.90
2022-12-28T01:51:33.890Z,99.90
2022-12-28T01:54:03.282Z,99.90
2022-12-28T01:56:30.432Z,99.90
2022-12-28T01:58:58.678Z,99.90
2022-12-28T02:01:27.031Z,99.90
2022-12-28T02:03:54.277Z,99.90
2022-12-28T02:06:21.551Z,99.90
2022-12-28T02:08:57.074Z,99.90
2022-12-28T02:11:24.299Z,99.90
2022-12-28T02:13:52.844Z,99.90
2022-12-28T02:16:20.367Z,99.90
2022-12-28T02:18:48.905Z,99.90
2022-12-28T02:21:37.564Z,99.90
2022-12-28T02:24:37.099Z,99.90
2022-12-28T02:27:16.985Z,99.90
2022-12-28T02:29:53.216Z,99.90
2022-12-28T02:33:01.505Z,99.90
2022-12-28T02:35:40.379Z,99.90
2022-12-28T02:38:19.229Z,99.90
2022-12-28T02:40:58.169Z,99.90
2022-12-28T02:43:26.379Z,99.90
2022-12-28T02:46:12.018Z,99.90
2022-12-28T02:49:02.426Z,99.90
2022-12-28T02:51:35.373Z,99.90
2022-12-28T02:54:43.733Z,99.90
2022-12-28T02:57:33.883Z,99.90
2022-12-28T03:00:07.235Z,99.90
2022-12-28T03:02:34.384Z,99.90
2022-12-28T03:05:01.568Z,99.90
2022-12-28T03:07:59.376Z,99.90
2022-12-28T03:10:45.621Z,99.90
2022-12-28T03:13:44.904Z,99.90
2022-12-28T03:17:09.073Z,99.90
2022-12-28T03:20:10.825Z,99.90
2022-12-28T03:22:59.123Z,99.90
2022-12-28T03:25:48.024Z,99.90
2022-12-28T03:28:39.343Z,99.90
2022-12-28T03:31:14.878Z,99.90
2022-12-28T03:33:50.981Z,99.90
2022-12-28T03:36:33.727Z,99.90
2022-12-28T03:39:32.177Z,99.90
2022-12-28T03:42:29.234Z,99.90
2022-12-28T03:45:45.558Z,99.90
2022-12-28T03:48:15.241Z,99.90
2022-12-28T03:50:47.764Z,99.90
2022-12-28T03:53:17.616Z,99.90
2022-12-28T03:55:45.026Z,99.90
2022-12-28T03:58:12.253Z,99.90
2022-12-28T04:00:39.465Z,99.90
2022-12-28T04:03:06.912Z,99.90
2022-12-28T04:05:34.231Z,99.90
2022-12-28T04:08:01.378Z,99.90
2022-12-28T04:10:28.665Z,99.90
2022-12-28T04:12:56.979Z,99.90
2022-12-28T04:15:24.275Z,99.90
2022-12-28T04:17:51.349Z,99.90
2022-12-28T04:20:18.561Z,99.90
2022-12-28T04:22:45.719Z,99.90
2022-12-28T04:25:12.913Z,99.90
2022-12-28T04:27:40.037Z,99.90
2022-12-28T04:30:07.825Z,99.90
2022-12-28T04:32:35.755Z,99.90
2022-12-28T04:35:02.918Z,99.90
2022-12-28T04:37:30.055Z,99.90
2022-12-28T04:39:57.647Z,99.90
2022-12-28T04:42:28.141Z,99.90
2022-12-28T04:44:58.322Z,99.90
2022-12-28T04:47:25.436Z,99.90
2022-12-28T04:49:52.738Z,99.90
2022-12-28T04:52:19.878Z,99.90
2022-12-28T04:54:47.019Z,99.90
2022-12-28T04:57:14.620Z,99.90
2022-12-28T04:59:41.689Z,99.90
2022-12-28T05:02:09.096Z,99.90
2022-12-28T05:04:36.400Z,99.90
2022-12-28T05:07:03.558Z,99.90
2022-12-28T05:09:30.691Z,99.90
2022-12-28T05:11:57.739Z,99.90
2022-12-28T05:14:24.853Z,99.90
2022-12-28T05:16:52.378Z,99.90
2022-12-28T05:19:19.788Z,99.90
2022-12-28T05:21:46.911Z,99.90
2022-12-28T05:24:14.071Z,99.90
2022-12-28T05:26:41.180Z,99.90
2022-12-28T05:29:08.378Z,99.90
2022-12-28T05:31:35.594Z,99.90
2022-12-28T05:34:03.015Z,99.90
2022-12-28T05:36:30.222Z,99.90
2022-12-28T05:38:57.545Z,99.90
2022-12-28T05:41:26.975Z,99.90
2022-12-28T05:43:55.250Z,99.90
2022-12-28T05:46:32.461Z,99.90
2022-12-28T05:49:00.641Z,99.90
2022-12-28T05:51:30.885Z,99.90
2022-12-28T05:54:04.572Z,99.90
2022-12-28T05:56:33.426Z,99.90
2022-12-28T05:59:03.382Z,99.90
2022-12-28T06:01:33.502Z,99.90
2022-12-28T06:04:03.785Z,99.90
2022-12-28T06:06:32.282Z,99.90
2022-12-28T06:08:59.742Z,99.90
2022-12-28T06:11:28.379Z,99.90
2022-12-28T06:13:56.145Z,99.90
2022-12-28T06:16:26.097Z,99.90
2022-12-28T06:18:53.570Z,99.90
2022-12-28T06:21:29.606Z,99.90
2022-12-28T06:23:58.928Z,99.90
2022-12-28T06:26:28.719Z,99.90
2022-12-28T06:28:56.431Z,99.90
2022-12-28T06:31:28.939Z,99.90
2022-12-28T06:33:57.699Z,99.90
2022-12-28T06:36:33.664Z,99.90
2022-12-28T06:39:02.137Z,99.90
2022-12-28T06:41:30.113Z,99.90
2022-12-28T06:43:58.552Z,99.90
2022-12-28T06:46:28.015Z,99.90
2022-12-28T06:48:56.122Z,99.90
2022-12-28T06:51:31.965Z,99.90
2022-12-28T06:53:59.196Z,99.90
2022-12-28T06:56:29.256Z,99.90
2022-12-28T06:59:02.410Z,99.90
2022-12-28T07:01:39.248Z,99.90
2022-12-28T07:04:08.615Z,99.90
2022-12-28T07:06:40.936Z,99.90
2022-12-28T07:09:14.209Z,99.90
2022-12-28T07:11:41.686Z,99.90
2022-12-28T07:14:08.881Z,99.90
2022-12-28T07:19:05.346Z,99.90
2022-12-28T07:21:35.440Z,99.90
2022-12-28T07:24:03.281Z,99.90
2022-12-28T07:26:33.022Z,99.90
2022-12-28T07:29:04.452Z,99.90
2022-12-28T07:31:39.727Z,99.90
2022-12-28T07:34:09.073Z,99.90
2022-12-28T07:36:38.303Z,99.90
2022-12-28T07:39:05.498Z,99.90
2022-12-28T07:41:34.306Z,99.90
2022-12-28T07:44:01.958Z,99.90
2022-12-28T07:46:32.402Z,99.90
2022-12-28T07:49:01.130Z,99.90
2022-12-28T07:51:37.058Z,99.90
2022-12-28T07:54:05.284Z,99.90
2022-12-28T07:59:05.012Z,99.90
2022-12-28T08:01:34.261Z,99.90
2022-12-28T08:04:07.146Z,99.90
2022-12-28T08:06:37.286Z,99.90
2022-12-28T08:09:05.919Z,99.90
2022-12-28T08:11:35.855Z,99.90
2022-12-28T08:14:03.601Z,99.90
2022-12-28T08:16:36.655Z,99.90
2022-12-28T08:19:04.494Z,99.90
2022-12-28T08:21:34.300Z,99.90
2022-12-28T08:24:02.170Z,99.90
2022-12-28T08:26:32.107Z,99.90
2022-12-28T08:29:02.320Z,99.90
2022-12-28T08:31:33.756Z,99.90
2022-12-28T08:34:03.269Z,99.90
2022-12-28T08:36:30.609Z,99.90
2022-12-28T08:38:58.049Z,99.90
2022-12-28T08:41:26.525Z,99.90
2022-12-28T08:43:54.822Z,99.90
2022-12-28T08:46:23.653Z,99.90
2022-12-28T08:48:53.111Z,99.90
2022-12-28T08:51:23.858Z,99.90
2022-12-28T08:53:51.596Z,99.90
2022-12-28T08:56:24.924Z,99.90
2022-12-28T08:58:52.372Z,99.90
2022-12-28T09:01:23.927Z,99.90
2022-12-28T09:03:54.095Z,99.90
2022-12-28T09:06:27.153Z,99.90
2022-12-28T09:09:06.748Z,99.90
2022-12-28T09:11:35.842Z,99.90
2022-12-28T09:14:04.719Z,99.90
2022-12-28T09:16:32.143Z,99.90
2022-12-28T09:19:01.375Z,99.90
2022-12-28T09:21:30.977Z,99.90
2022-12-28T09:23:58.643Z,99.90
2022-12-28T09:26:31.887Z,99.90
2022-12-28T09:29:00.984Z,99.90
2022-12-28T09:31:34.522Z,99.90
2022-12-28T09:36:49.288Z,99.90
2022-12-28T09:39:24.756Z,99.90
2022-12-28T09:42:03.717Z,99.90
2022-12-28T09:45:00.977Z,99.90
2022-12-28T09:48:00.883Z,99.90
2022-12-28T09:50:32.896Z,99.90
2022-12-28T09:53:06.116Z,99.90
2022-12-28T09:55:35.540Z,99.90
2022-12-28T09:58:05.679Z,99.90
2022-12-28T10:00:44.221Z,99.90
2022-12-28T10:03:39.097Z,99.90
2022-12-28T10:06:22.108Z,99.90
2022-12-28T10:08:53.720Z,99.90
2022-12-28T10:11:27.190Z,99.90
2022-12-28T10:14:22.236Z,99.90
2022-12-28T10:16:49.515Z,99.90
2022-12-28T10:19:22.451Z,99.90
2022-12-28T10:22:04.062Z,99.90
2022-12-28T10:24:32.787Z,99.90
2022-12-28T10:27:05.614Z,99.90
2022-12-28T10:29:38.116Z,99.90
2022-12-28T10:32:09.845Z,99.90
2022-12-28T10:34:37.704Z,99.90
2022-12-28T10:37:19.199Z,99.90
2022-12-28T10:39:57.683Z,99.90
2022-12-28T10:42:35.126Z,99.90
2022-12-28T10:45:27.322Z,99.90
2022-12-28T10:47:56.785Z,99.90
2022-12-28T10:50:44.979Z,99.90
2022-12-28T10:53:32.311Z,99.90
2022-12-28T10:56:09.522Z,99.90
2022-12-28T10:58:36.866Z,99.90
2022-12-28T11:01:08.059Z,99.90
2022-12-28T11:03:38.182Z,99.90
2022-12-28T11:06:10.863Z,99.90
2022-12-28T11:08:39.952Z,99.90
2022-12-28T11:11:08.032Z,99.90
2022-12-28T11:13:36.336Z,99.90
2022-12-28T11:16:08.048Z,99.90
2022-12-28T11:18:38.032Z,99.90
2022-12-28T11:21:05.797Z,99.90
2022-12-28T11:23:34.941Z,99.90
2022-12-28T11:26:02.136Z,99.90
2022-12-28T11:28:29.302Z,99.90
2022-12-28T11:30:58.922Z,99.90
2022-12-28T11:33:48.709Z,99.90
2022-12-28T11:36:25.202Z,99.90
2022-12-28T11:38:54.144Z,99.90
2022-12-28T11:41:30.181Z,99.90
2022-12-28T11:44:09.642Z,99.90
2022-12-28T11:46:39.442Z,99.90
2022-12-28T11:49:28.728Z,99.90
2022-12-28T11:52:17.803Z,99.90
2022-12-28T11:54:59.146Z,99.90
2022-12-28T11:57:43.818Z,99.90
2022-12-28T12:00:23.023Z,99.90
2022-12-28T12:03:01.083Z,99.90
2022-12-28T12:05:37.426Z,99.90
2022-12-28T12:08:16.568Z,99.90
2022-12-28T12:10:48.236Z,99.90
2022-12-28T12:13:27.485Z,99.90
2022-12-28T12:16:04.237Z,99.90
2022-12-28T12:18:47.065Z,99.90
2022-12-28T12:21:32.162Z,99.90
2022-12-28T12:24:27.082Z,99.90
2022-12-28T12:27:01.240Z,99.90
2022-12-28T12:29:43.362Z,99.90
2022-12-28T12:32:56.809Z,99.90
2022-12-28T12:35:29.304Z,99.90
2022-12-28T12:38:00.958Z,99.90
2022-12-28T12:40:49.839Z,99.90
2022-12-28T12:43:23.139Z,99.90
2022-12-28T12:46:35.111Z,99.90
2022-12-28T12:49:23.767Z,99.90
2022-12-28T12:52:28.262Z,99.90
2022-12-28T12:55:18.723Z,99.90
2022-12-28T12:58:04.307Z,99.90
2022-12-28T13:00:56.663Z,99.90
2022-12-28T13:03:30.244Z,99.90
2022-12-28T13:05:58.817Z,99.90
2022-12-28T13:08:35.095Z,99.90
2022-12-28T13:11:02.492Z,99.90
2022-12-28T13:13:36.227Z,99.90
2022-12-28T13:16:08.960Z,99.90
2022-12-28T13:18:45.026Z,99.90
2022-12-28T13:21:22.294Z,99.90
2022-12-28T13:23:51.072Z,99.90
2022-12-28T13:26:20.132Z,99.90
2022-12-28T13:29:00.817Z,99.90
2022-12-28T13:31:41.058Z,99.90
2022-12-28T13:34:43.654Z,99.90
2022-12-28T13:37:16.231Z,99.90
2022-12-28T13:39:43.359Z,99.90
2022-12-28T13:42:30.749Z,99.90
2022-12-28T13:45:03.306Z,99.90
2022-12-28T13:47:41.312Z,99.00
2022-12-28T13:50:27.810Z,97.80
2022-12-28T13:53:09.568Z,96.70
2022-12-28T13:55:46.472Z,95.80
2022-12-28T13:58:31.868Z,96.70
2022-12-28T14:01:03.380Z,97.60
2022-12-28T14:03:38.993Z,97.90
2022-12-28T14:06:08.013Z,97.50
2022-12-28T14:08:37.804Z,97.70
2022-12-28T14:11:06.612Z,97.40
2022-12-28T14:13:35.019Z,96.90
2022-12-28T14:16:04.307Z,96.60
2022-12-28T14:18:33.766Z,96.80
2022-12-28T14:21:02.633Z,97.50
2022-12-28T14:23:32.481Z,97.80
2022-12-28T14:26:02.706Z,98.20
2022-12-28T14:28:35.985Z,98.80
2022-12-28T14:31:05.787Z,99.30
2022-12-28T14:33:35.924Z,99.90
2022-12-28T14:36:05.873Z,99.90
2022-12-28T14:38:47.333Z,99.90
2022-12-28T14:41:20.948Z,99.90
2022-12-28T14:43:54.776Z,99.90
2022-12-28T14:46:37.461Z,99.90
2022-12-28T14:49:26.699Z,99.90
2022-12-28T14:51:54.109Z,99.90
2022-12-28T14:54:26.171Z,99.90
2022-12-28T14:57:03.137Z,99.90
2022-12-28T14:59:34.923Z,99.90
2022-12-28T15:02:02.198Z,99.90
2022-12-28T15:04:39.655Z,99.90
2022-12-28T15:07:09.772Z,99.90
2022-12-28T15:09:36.902Z,99.90
2022-12-28T15:12:09.790Z,99.90
2022-12-28T15:14:37.629Z,99.90
2022-12-28T15:17:05.499Z,99.90
2022-12-28T15:19:34.548Z,99.90
2022-12-28T15:22:04.732Z,99.90
2022-12-28T15:24:34.298Z,99.90
2022-12-28T15:27:05.214Z,99.90
2022-12-28T15:29:56.150Z,99.90
2022-12-28T15:32:19.652Z,99.90
2022-12-28T15:34:46.793Z,99.90
2022-12-28T15:37:13.925Z,99.90
2022-12-28T15:39:41.055Z,99.90
2022-12-28T15:42:08.142Z,99.90
2022-12-28T15:44:35.313Z,99.90
2022-12-28T15:47:02.696Z,99.90
2022-12-28T15:49:29.938Z,99.90
2022-12-28T15:51:57.163Z,99.90
2022-12-28T15:54:24.246Z,99.90
2022-12-28T15:56:55.418Z,99.90
2022-12-28T15:59:22.582Z,99.90
2022-12-28T16:01:50.077Z,99.90
2022-12-28T16:04:17.330Z,99.90
2022-12-28T16:06:45.332Z,99.90
2022-12-28T16:09:13.374Z,99.90
2022-12-28T16:11:41.542Z,99.90
2022-12-28T16:14:14.400Z,99.90
2022-12-28T16:16:42.460Z,99.90
2022-12-28T16:19:13.065Z,99.90
2022-12-28T16:21:40.564Z,99.90
2022-12-28T16:24:08.037Z,99.90
2022-12-28T16:26:35.296Z,99.90
2022-12-28T16:29:05.069Z,99.90
2022-12-28T16:31:39.551Z,99.90
2022-12-28T16:34:18.623Z,99.90
2022-12-28T16:36:49.497Z,99.90
2022-12-28T16:39:21.517Z,99.90
2022-12-28T16:41:48.714Z,99.90
2022-12-28T16:44:19.091Z,99.90
2022-12-28T16:46:47.363Z,99.90
2022-12-28T16:49:14.730Z,99.90
2022-12-28T16:51:45.309Z,99.90
2022-12-28T16:54:14.794Z,99.90
2022-12-28T16:56:56.148Z,99.90
2022-12-28T16:59:28.636Z,99.90
2022-12-28T17:01:59.720Z,99.90
2022-12-28T17:04:27.994Z,99.90
2022-12-28T17:06:59.817Z,99.90
2022-12-28T17:09:29.640Z,99.90
2022-12-28T17:11:57.039Z,99.90
2022-12-28T17:14:36.799Z,99.90
2022-12-28T17:17:05.640Z,99.90
2022-12-28T17:19:33.199Z,99.90
2022-12-28T17:22:00.374Z,99.90
2022-12-28T17:24:27.821Z,99.90
2022-12-28T17:26:55.160Z,99.90
2022-12-28T17:29:22.842Z,99.90
2022-12-28T17:31:50.494Z,99.90
2022-12-28T17:34:21.454Z,99.90
2022-12-28T17:36:49.716Z,99.90
2022-12-28T17:39:17.673Z,99.90
2022-12-28T17:41:45.256Z,99.90
2022-12-28T17:44:13.552Z,99.90
2022-12-28T17:46:41.595Z,99.90
2022-12-28T17:49:12.428Z,99.90
2022-12-28T17:51:43.636Z,99.90
2022-12-28T17:54:12.018Z,99.90
2022-12-28T17:56:40.358Z,99.90
2022-12-28T17:59:10.502Z,99.90
2022-12-28T18:01:38.077Z,99.90
2022-12-28T18:04:08.728Z,99.90
2022-12-28T18:06:35.849Z,99.90
2022-12-28T18:09:04.443Z,99.90
2022-12-28T18:11:31.726Z,99.90
2022-12-28T18:14:03.679Z,99.90
2022-12-28T18:16:30.980Z,99.90
2022-12-28T18:18:58.162Z,99.90
2022-12-28T18:21:25.350Z,99.90
2022-12-28T18:23:52.975Z,99.90
2022-12-28T18:26:23.036Z,99.90
2022-12-28T18:28:50.320Z,99.90
2022-12-28T18:31:18.459Z,99.90
2022-12-28T18:33:46.302Z,99.90
2022-12-28T18:36:17.838Z,99.90
2022-12-28T18:38:46.491Z,99.90
2022-12-28T18:41:16.073Z,99.90
2022-12-28T18:43:44.513Z,99.90
2022-12-28T18:46:12.041Z,99.90
2022-12-28T18:48:41.404Z,99.90
2022-12-28T18:51:10.066Z,99.90
2022-12-28T18:53:40.403Z,99.90
2022-12-28T18:56:15.997Z,99.90
2022-12-28T18:58:44.057Z,99.90
2022-12-28T19:01:32.302Z,99.90
2022-12-28T19:04:01.144Z,99.90
2022-12-28T19:06:29.583Z,99.90
2022-12-28T19:09:00.689Z,99.90
2022-12-28T19:11:28.432Z,99.90
2022-12-28T19:13:55.827Z,99.90
2022-12-28T19:16:30.759Z,99.90
2022-12-28T19:18:59.405Z,99.90
2022-12-28T19:21:37.225Z,99.90
2022-12-28T19:24:23.804Z,99.90
2022-12-28T19:26:51.835Z,99.90
2022-12-28T19:29:18.980Z,99.90
2022-12-28T19:31:46.325Z,99.90
2022-12-28T19:34:16.665Z,99.90
2022-12-28T19:36:43.938Z,99.90
2022-12-28T19:39:12.318Z,99.90
2022-12-28T19:41:40.281Z,99.90
2022-12-28T19:44:07.484Z,99.90
2022-12-28T19:46:36.768Z,99.90
2022-12-28T19:49:05.085Z,99.90
2022-12-28T19:51:33.158Z,99.90
2022-12-28T19:54:02.249Z,99.90
2022-12-28T19:56:32.507Z,99.90
2022-12-28T19:59:05.891Z,99.90
2022-12-28T20:01:36.885Z,99.90
2022-12-28T20:04:12.893Z,99.90
2022-12-28T20:06:43.125Z,99.90
2022-12-28T20:09:11.257Z,99.90
2022-12-28T20:11:38.982Z,99.90
2022-12-28T20:14:06.717Z,99.90
2022-12-28T20:16:36.239Z,99.90
2022-12-28T20:19:07.181Z,99.90
2022-12-28T20:21:39.225Z,99.90
2022-12-28T20:24:07.178Z,99.90
2022-12-28T20:26:35.051Z,99.90
2022-12-28T20:29:03.075Z,99.90
2022-12-28T20:31:31.323Z,99.90
2022-12-28T20:34:01.180Z,99.90
2022-12-28T20:36:31.140Z,99.90
2022-12-28T20:38:59.359Z,99.90
2022-12-28T20:41:50.389Z,99.90
2022-12-28T20:44:29.220Z,99.90
2022-12-28T20:46:57.932Z,99.90
2022-12-28T20:49:26.493Z,99.90
2022-12-28T20:51:54.861Z,99.90
2022-12-28T20:54:23.178Z,99.90
2022-12-28T20:56:55.157Z,99.90
2022-12-28T20:59:25.268Z,99.90
2022-12-28T21:02:03.008Z,99.90
2022-12-28T21:04:31.743Z,99.90
2022-12-28T21:06:59.942Z,99.90
2022-12-28T21:09:27.839Z,99.90
2022-12-28T21:11:56.846Z,99.90
2022-12-28T21:14:24.300Z,99.90
2022-12-28T21:16:51.725Z,99.90
2022-12-28T21:19:19.283Z,99.90
2022-12-28T21:21:48.702Z,99.90
2022-12-28T21:24:17.845Z,99.90
2022-12-28T21:26:47.637Z,99.90
2022-12-28T21:29:19.171Z,99.90
2022-12-28T21:31:52.337Z,99.90
2022-12-28T21:34:19.900Z,99.90
2022-12-28T21:37:13.273Z,99.90
2022-12-28T21:39:43.715Z,99.90
2022-12-28T21:42:11.388Z,99.90
2022-12-28T21:44:39.395Z,99.90
2022-12-28T21:47:07.538Z,99.90
2022-12-28T21:49:34.964Z,99.90
2022-12-28T21:52:03.650Z,99.90
2022-12-28T21:54:30.995Z,99.90
2022-12-28T21:56:58.833Z,99.90
2022-12-28T21:59:26.702Z,99.90
2022-12-28T22:02:16.700Z,99.90
2022-12-28T22:05:05.141Z,99.90
2022-12-28T22:07:35.267Z,99.90
2022-12-28T22:10:23.081Z,99.90
2022-12-28T22:12:50.328Z,99.90
2022-12-28T22:15:38.478Z,99.90
2022-12-28T22:19:00.990Z,99.90
2022-12-28T22:21:10.820Z,99.90
2022-12-28T22:23:38.180Z,99.90
2022-12-28T22:26:05.583Z,99.90
2022-12-28T22:28:33.072Z,99.90
2022-12-28T22:31:07.900Z,99.90
2022-12-28T22:33:35.472Z,99.90
2022-12-28T22:36:32.174Z,99.90
2022-12-28T22:38:59.618Z,99.90
2022-12-28T22:41:27.087Z,99.90
2022-12-28T22:43:55.232Z,99.90
2022-12-28T22:46:22.617Z,99.90
2022-12-28T22:48:50.096Z,99.90
2022-12-28T22:51:20.065Z,99.90
2022-12-28T22:53:50.173Z,99.90
2022-12-28T22:56:20.282Z,99.90
2022-12-28T22:58:50.434Z,99.90
2022-12-28T23:01:20.499Z,99.90
2022-12-28T23:03:51.826Z,99.90
2022-12-28T23:06:21.005Z,99.90
2022-12-28T23:08:49.496Z,99.90
2022-12-28T23:11:37.103Z,99.90
2022-12-28T23:14:38.392Z,99.90
2022-12-28T23:17:12.823Z,99.90
2022-12-28T23:20:00.360Z,99.90
2022-12-28T23:22:48.418Z,99.90
2022-12-28T23:25:37.310Z,99.90
2022-12-28T23:28:17.196Z,99.90
2022-12-28T23:30:50.529Z,99.90
2022-12-28T23:33:19.112Z,99.90
2022-12-28T23:35:46.412Z,99.90
2022-12-28T23:38:13.855Z,99.90
2022-12-28T23:40:44.541Z,99.90
2022-12-28T23:43:11.971Z,99.90
2022-12-28T23:45:39.244Z,99.90
2022-12-28T23:48:06.796Z,99.90
2022-12-28T23:50:37.256Z,99.90
2022-12-28T23:53:05.439Z,99.90
2022-12-28T23:55:32.519Z,99.90
2022-12-28T23:57:59.707Z,99.90
